sensor_id;sensor_type;location;lat;lon;timestamp;pressure;altitude;pressure_sealevel;temperature;humidity
49645;BME280;36494;50.730;-1.932;2023-05-19T00:02:19;102180.98;;;12.58;100.00
49645;BME280;36494;50.730;-1.932;2023-05-19T00:04:44;102180.96;;;12.60;100.00
49645;BME280;36494;50.730;-1.932;2023-05-19T00:07:10;102179.50;;;12.65;100.00
49645;BME280;36494;50.730;-1.932;2023-05-19T00:09:35;102185.27;;;12.64;100.00
49645;BME280;36494;50.730;-1.932;2023-05-19T00:12:00;102189.53;;;12.66;100.00
49645;BME280;36494;50.730;-1.932;2023-05-19T00:14:26;102194.59;;;12.67;100.00
49645;BME280;36494;50.730;-1.932;2023-05-19T00:16:51;102196.61;;;12.67;100.00
49645;BME280;36494;50.730;-1.932;2023-05-19T00:19:16;102196.45;;;12.67;100.00
49645;BME280;36494;50.730;-1.932;2023-05-19T00:21:41;102195.44;;;12.67;100.00
49645;BME280;36494;50.730;-1.932;2023-05-19T00:24:07;102191.75;;;12.64;100.00
49645;BME280;36494;50.730;-1.932;2023-05-19T00:26:32;102186.09;;;12.65;100.00
49645;BME280;36494;50.730;-1.932;2023-05-19T00:28:58;102186.98;;;12.64;100.00
49645;BME280;36494;50.730;-1.932;2023-05-19T00:31:23;102190.35;;;12.60;100.00
49645;BME280;36494;50.730;-1.932;2023-05-19T00:33:48;102190.73;;;12.57;100.00
49645;BME280;36494;50.730;-1.932;2023-05-19T00:36:14;102190.98;;;12.56;100.00
49645;BME280;36494;50.730;-1.932;2023-05-19T00:38:39;102189.96;;;12.53;100.00
49645;BME280;36494;50.730;-1.932;2023-05-19T00:41:05;102189.95;;;12.51;100.00
49645;BME280;36494;50.730;-1.932;2023-05-19T00:43:30;102185.99;;;12.49;100.00
49645;BME280;36494;50.730;-1.932;2023-05-19T00:45:55;102186.50;;;12.48;100.00
49645;BME280;36494;50.730;-1.932;2023-05-19T00:48:20;102184.83;;;12.38;100.00
49645;BME280;36494;50.730;-1.932;2023-05-19T00:50:46;102183.95;;;12.39;100.00
49645;BME280;36494;50.730;-1.932;2023-05-19T00:53:12;102183.91;;;12.39;100.00
49645;BME280;36494;50.730;-1.932;2023-05-19T00:55:37;102187.61;;;12.36;100.00
49645;BME280;36494;50.730;-1.932;2023-05-19T00:58:02;102187.32;;;12.40;100.00
49645;BME280;36494;50.730;-1.932;2023-05-19T01:00:28;102183.34;;;12.41;100.00
49645;BME280;36494;50.730;-1.932;2023-05-19T01:02:52;102180.27;;;12.41;100.00
49645;BME280;36494;50.730;-1.932;2023-05-19T01:05:18;102178.92;;;12.40;100.00
49645;BME280;36494;50.730;-1.932;2023-05-19T01:07:43;102177.12;;;12.40;100.00
49645;BME280;36494;50.730;-1.932;2023-05-19T01:10:09;102176.55;;;12.38;100.00
49645;BME280;36494;50.730;-1.932;2023-05-19T01:12:34;102175.91;;;12.39;100.00
49645;BME280;36494;50.730;-1.932;2023-05-19T01:14:59;102174.63;;;12.35;100.00
49645;BME280;36494;50.730;-1.932;2023-05-19T01:17:29;102175.20;;;12.34;100.00
49645;BME280;36494;50.730;-1.932;2023-05-19T01:19:55;102177.37;;;12.31;100.00
49645;BME280;36494;50.730;-1.932;2023-05-19T01:22:26;102175.09;;;12.26;100.00
49645;BME280;36494;50.730;-1.932;2023-05-19T01:24:58;102175.41;;;12.28;100.00
49645;BME280;36494;50.730;-1.932;2023-05-19T01:27:16;102175.17;;;12.25;100.00
49645;BME280;36494;50.730;-1.932;2023-05-19T01:29:41;102180.40;;;12.23;100.00
49645;BME280;36494;50.730;-1.932;2023-05-19T01:31:59;102178.96;;;12.24;100.00
49645;BME280;36494;50.730;-1.932;2023-05-19T01:34:22;102178.02;;;12.20;100.00
49645;BME280;36494;50.730;-1.932;2023-05-19T01:36:47;102173.19;;;12.21;100.00
49645;BME280;36494;50.730;-1.932;2023-05-19T01:39:12;102172.02;;;12.20;100.00
49645;BME280;36494;50.730;-1.932;2023-05-19T01:41:39;102169.39;;;12.17;100.00
49645;BME280;36494;50.730;-1.932;2023-05-19T01:44:02;102173.68;;;12.19;100.00
49645;BME280;36494;50.730;-1.932;2023-05-19T01:46:28;102173.69;;;12.20;100.00
49645;BME280;36494;50.730;-1.932;2023-05-19T01:48:53;102171.99;;;12.17;100.00
49645;BME280;36494;50.730;-1.932;2023-05-19T01:51:19;102175.17;;;12.18;100.00
49645;BME280;36494;50.730;-1.932;2023-05-19T01:53:44;102177.94;;;12.19;100.00
49645;BME280;36494;50.730;-1.932;2023-05-19T01:56:09;102178.21;;;12.18;100.00
49645;BME280;36494;50.730;-1.932;2023-05-19T01:58:38;102176.46;;;12.18;100.00
49645;BME280;36494;50.730;-1.932;2023-05-19T02:01:08;102171.76;;;12.19;100.00
49645;BME280;36494;50.730;-1.932;2023-05-19T02:03:38;102169.16;;;12.20;100.00
49645;BME280;36494;50.730;-1.932;2023-05-19T02:05:54;102169.10;;;12.20;100.00
49645;BME280;36494;50.730;-1.932;2023-05-19T02:08:21;102171.53;;;12.16;100.00
49645;BME280;36494;50.730;-1.932;2023-05-19T02:10:44;102177.60;;;12.17;100.00
49645;BME280;36494;50.730;-1.932;2023-05-19T02:13:10;102176.24;;;12.17;100.00
49645;BME280;36494;50.730;-1.932;2023-05-19T02:15:36;102176.31;;;12.13;100.00
49645;BME280;36494;50.730;-1.932;2023-05-19T02:17:59;102170.59;;;12.10;100.00
49645;BME280;36494;50.730;-1.932;2023-05-19T02:20:23;102168.38;;;12.12;100.00
49645;BME280;36494;50.730;-1.932;2023-05-19T02:22:49;102168.98;;;12.07;100.00
49645;BME280;36494;50.730;-1.932;2023-05-19T02:25:15;102167.34;;;12.07;100.00
49645;BME280;36494;50.730;-1.932;2023-05-19T02:27:40;102165.09;;;12.07;100.00
49645;BME280;36494;50.730;-1.932;2023-05-19T02:30:07;102167.36;;;12.07;100.00
49645;BME280;36494;50.730;-1.932;2023-05-19T02:32:31;102167.70;;;12.07;100.00
49645;BME280;36494;50.730;-1.932;2023-05-19T02:34:56;102164.97;;;12.07;100.00
49645;BME280;36494;50.730;-1.932;2023-05-19T02:37:21;102163.08;;;12.05;100.00
49645;BME280;36494;50.730;-1.932;2023-05-19T02:39:46;102162.81;;;11.97;100.00
49645;BME280;36494;50.730;-1.932;2023-05-19T02:42:11;102160.04;;;11.91;100.00
49645;BME280;36494;50.730;-1.932;2023-05-19T02:44:37;102158.16;;;11.97;100.00
49645;BME280;36494;50.730;-1.932;2023-05-19T02:47:02;102154.84;;;11.96;100.00
49645;BME280;36494;50.730;-1.932;2023-05-19T02:49:27;102151.53;;;11.98;100.00
49645;BME280;36494;50.730;-1.932;2023-05-19T02:51:53;102153.85;;;11.97;100.00
49645;BME280;36494;50.730;-1.932;2023-05-19T02:54:18;102155.63;;;11.99;100.00
49645;BME280;36494;50.730;-1.932;2023-05-19T02:56:43;102154.31;;;11.99;100.00
49645;BME280;36494;50.730;-1.932;2023-05-19T02:59:08;102153.03;;;12.00;100.00
49645;BME280;36494;50.730;-1.932;2023-05-19T03:01:34;102151.46;;;11.97;100.00
49645;BME280;36494;50.730;-1.932;2023-05-19T03:04:00;102154.06;;;11.98;100.00
49645;BME280;36494;50.730;-1.932;2023-05-19T03:06:25;102161.15;;;11.95;100.00
49645;BME280;36494;50.730;-1.932;2023-05-19T03:08:51;102160.15;;;11.93;100.00
49645;BME280;36494;50.730;-1.932;2023-05-19T03:11:16;102161.92;;;11.91;100.00
49645;BME280;36494;50.730;-1.932;2023-05-19T03:13:41;102162.72;;;11.84;100.00
49645;BME280;36494;50.730;-1.932;2023-05-19T03:16:07;102160.74;;;11.81;100.00
49645;BME280;36494;50.730;-1.932;2023-05-19T03:18:32;102162.05;;;11.85;100.00
49645;BME280;36494;50.730;-1.932;2023-05-19T03:20:57;102165.82;;;11.81;100.00
49645;BME280;36494;50.730;-1.932;2023-05-19T03:23:23;102168.26;;;11.84;100.00
49645;BME280;36494;50.730;-1.932;2023-05-19T03:25:48;102170.70;;;11.82;100.00
49645;BME280;36494;50.730;-1.932;2023-05-19T03:28:13;102172.70;;;11.80;100.00
49645;BME280;36494;50.730;-1.932;2023-05-19T03:30:38;102170.20;;;11.83;100.00
49645;BME280;36494;50.730;-1.932;2023-05-19T03:33:04;102161.25;;;11.82;100.00
49645;BME280;36494;50.730;-1.932;2023-05-19T03:35:29;102155.16;;;11.80;100.00
49645;BME280;36494;50.730;-1.932;2023-05-19T03:37:54;102148.43;;;11.81;100.00
49645;BME280;36494;50.730;-1.932;2023-05-19T03:40:20;102150.53;;;11.81;100.00
49645;BME280;36494;50.730;-1.932;2023-05-19T03:42:45;102149.44;;;11.78;100.00
49645;BME280;36494;50.730;-1.932;2023-05-19T03:45:10;102149.83;;;11.76;100.00
49645;BME280;36494;50.730;-1.932;2023-05-19T03:47:35;102147.86;;;11.75;100.00
49645;BME280;36494;50.730;-1.932;2023-05-19T03:50:01;102144.92;;;11.74;100.00
49645;BME280;36494;50.730;-1.932;2023-05-19T03:52:26;102142.12;;;11.72;100.00
49645;BME280;36494;50.730;-1.932;2023-05-19T03:54:51;102133.85;;;11.71;100.00
49645;BME280;36494;50.730;-1.932;2023-05-19T03:57:17;102131.75;;;11.69;100.00
49645;BME280;36494;50.730;-1.932;2023-05-19T03:59:42;102139.25;;;11.67;100.00
49645;BME280;36494;50.730;-1.932;2023-05-19T04:02:08;102147.84;;;11.62;100.00
49645;BME280;36494;50.730;-1.932;2023-05-19T04:04:33;102149.84;;;11.60;100.00
49645;BME280;36494;50.730;-1.932;2023-05-19T04:06:59;102149.46;;;11.54;100.00
49645;BME280;36494;50.730;-1.932;2023-05-19T04:09:24;102151.66;;;11.50;100.00
49645;BME280;36494;50.730;-1.932;2023-05-19T04:11:49;102151.83;;;11.50;100.00
49645;BME280;36494;50.730;-1.932;2023-05-19T04:14:14;102150.53;;;11.51;100.00
49645;BME280;36494;50.730;-1.932;2023-05-19T04:16:40;102152.38;;;11.52;100.00
49645;BME280;36494;50.730;-1.932;2023-05-19T04:19:05;102153.05;;;11.52;100.00
49645;BME280;36494;50.730;-1.932;2023-05-19T04:21:30;102151.09;;;11.52;100.00
49645;BME280;36494;50.730;-1.932;2023-05-19T04:23:56;102146.10;;;11.51;100.00
49645;BME280;36494;50.730;-1.932;2023-05-19T04:26:21;102142.95;;;11.50;100.00
49645;BME280;36494;50.730;-1.932;2023-05-19T04:28:46;102136.38;;;11.47;100.00
49645;BME280;36494;50.730;-1.932;2023-05-19T04:31:12;102138.00;;;11.45;100.00
49645;BME280;36494;50.730;-1.932;2023-05-19T04:33:37;102141.02;;;11.42;100.00
49645;BME280;36494;50.730;-1.932;2023-05-19T04:36:03;102146.41;;;11.42;100.00
49645;BME280;36494;50.730;-1.932;2023-05-19T04:38:28;102150.35;;;11.40;100.00
49645;BME280;36494;50.730;-1.932;2023-05-19T04:40:53;102147.87;;;11.36;100.00
49645;BME280;36494;50.730;-1.932;2023-05-19T04:43:18;102140.89;;;11.34;100.00
49645;BME280;36494;50.730;-1.932;2023-05-19T04:45:43;102139.28;;;11.28;100.00
49645;BME280;36494;50.730;-1.932;2023-05-19T04:48:09;102138.36;;;11.29;100.00
49645;BME280;36494;50.730;-1.932;2023-05-19T04:50:34;102138.99;;;11.30;100.00
49645;BME280;36494;50.730;-1.932;2023-05-19T04:53:00;102140.03;;;11.31;100.00
49645;BME280;36494;50.730;-1.932;2023-05-19T04:55:25;102141.70;;;11.31;100.00
49645;BME280;36494;50.730;-1.932;2023-05-19T04:57:50;102143.89;;;11.33;100.00
49645;BME280;36494;50.730;-1.932;2023-05-19T05:00:17;102140.87;;;11.33;100.00
49645;BME280;36494;50.730;-1.932;2023-05-19T05:02:41;102142.95;;;11.32;100.00
49645;BME280;36494;50.730;-1.932;2023-05-19T05:05:07;102147.02;;;11.35;100.00
49645;BME280;36494;50.730;-1.932;2023-05-19T05:07:32;102149.31;;;11.37;100.00
49645;BME280;36494;50.730;-1.932;2023-05-19T05:09:58;102148.68;;;11.38;100.00
49645;BME280;36494;50.730;-1.932;2023-05-19T05:12:23;102148.99;;;11.42;100.00
49645;BME280;36494;50.730;-1.932;2023-05-19T05:14:49;102147.44;;;11.45;100.00
49645;BME280;36494;50.730;-1.932;2023-05-19T05:17:14;102147.50;;;11.43;100.00
49645;BME280;36494;50.730;-1.932;2023-05-19T05:19:40;102153.03;;;11.47;100.00
49645;BME280;36494;50.730;-1.932;2023-05-19T05:22:06;102157.75;;;11.50;100.00
49645;BME280;36494;50.730;-1.932;2023-05-19T05:24:30;102159.82;;;11.51;100.00
49645;BME280;36494;50.730;-1.932;2023-05-19T05:26:55;102156.59;;;11.53;100.00
49645;BME280;36494;50.730;-1.932;2023-05-19T05:29:20;102155.57;;;11.57;100.00
49645;BME280;36494;50.730;-1.932;2023-05-19T05:31:46;102159.69;;;11.58;100.00
49645;BME280;36494;50.730;-1.932;2023-05-19T05:34:11;102165.17;;;11.60;100.00
49645;BME280;36494;50.730;-1.932;2023-05-19T05:36:37;102160.66;;;11.56;100.00
49645;BME280;36494;50.730;-1.932;2023-05-19T05:39:02;102160.86;;;11.55;100.00
49645;BME280;36494;50.730;-1.932;2023-05-19T05:41:27;102169.93;;;11.56;100.00
49645;BME280;36494;50.730;-1.932;2023-05-19T05:43:52;102174.58;;;11.41;100.00
49645;BME280;36494;50.730;-1.932;2023-05-19T05:46:17;102177.21;;;11.40;100.00
49645;BME280;36494;50.730;-1.932;2023-05-19T05:48:43;102172.77;;;11.51;100.00
49645;BME280;36494;50.730;-1.932;2023-05-19T05:51:09;102165.15;;;11.56;100.00
49645;BME280;36494;50.730;-1.932;2023-05-19T05:53:36;102163.79;;;11.52;100.00
49645;BME280;36494;50.730;-1.932;2023-05-19T05:55:59;102167.02;;;11.55;100.00
49645;BME280;36494;50.730;-1.932;2023-05-19T05:58:24;102167.46;;;11.61;100.00
49645;BME280;36494;50.730;-1.932;2023-05-19T06:00:49;102165.51;;;11.65;100.00
49645;BME280;36494;50.730;-1.932;2023-05-19T06:03:14;102160.40;;;11.68;100.00
49645;BME280;36494;50.730;-1.932;2023-05-19T06:05:39;102155.01;;;11.74;100.00
49645;BME280;36494;50.730;-1.932;2023-05-19T06:08:05;102152.42;;;11.66;100.00
49645;BME280;36494;50.730;-1.932;2023-05-19T06:10:30;102149.39;;;11.71;100.00
49645;BME280;36494;50.730;-1.932;2023-05-19T06:12:56;102145.31;;;11.75;100.00
49645;BME280;36494;50.730;-1.932;2023-05-19T06:15:21;102141.87;;;11.82;100.00
49645;BME280;36494;50.730;-1.932;2023-05-19T06:17:46;102140.79;;;11.90;100.00
49645;BME280;36494;50.730;-1.932;2023-05-19T06:20:12;102143.25;;;11.95;100.00
49645;BME280;36494;50.730;-1.932;2023-05-19T06:22:36;102145.15;;;12.03;100.00
49645;BME280;36494;50.730;-1.932;2023-05-19T06:25:02;102142.87;;;12.04;100.00
49645;BME280;36494;50.730;-1.932;2023-05-19T06:27:27;102145.00;;;12.11;100.00
49645;BME280;36494;50.730;-1.932;2023-05-19T06:29:52;102141.89;;;12.07;100.00
49645;BME280;36494;50.730;-1.932;2023-05-19T06:32:17;102146.00;;;12.12;100.00
49645;BME280;36494;50.730;-1.932;2023-05-19T06:34:42;102148.93;;;12.19;100.00
49645;BME280;36494;50.730;-1.932;2023-05-19T06:37:07;102147.21;;;12.19;100.00
49645;BME280;36494;50.730;-1.932;2023-05-19T06:39:33;102141.73;;;12.27;100.00
49645;BME280;36494;50.730;-1.932;2023-05-19T06:41:58;102139.87;;;12.30;100.00
49645;BME280;36494;50.730;-1.932;2023-05-19T06:44:23;102140.87;;;12.35;100.00
49645;BME280;36494;50.730;-1.932;2023-05-19T06:46:49;102141.53;;;12.41;100.00
49645;BME280;36494;50.730;-1.932;2023-05-19T06:49:14;102142.20;;;12.42;100.00
49645;BME280;36494;50.730;-1.932;2023-05-19T06:51:39;102147.62;;;12.49;100.00
49645;BME280;36494;50.730;-1.932;2023-05-19T06:54:05;102148.32;;;12.58;100.00
49645;BME280;36494;50.730;-1.932;2023-05-19T06:56:30;102147.88;;;12.63;100.00
49645;BME280;36494;50.730;-1.932;2023-05-19T06:58:56;102144.04;;;12.68;100.00
49645;BME280;36494;50.730;-1.932;2023-05-19T07:01:21;102143.42;;;12.75;100.00
49645;BME280;36494;50.730;-1.932;2023-05-19T07:03:46;102149.87;;;12.82;100.00
49645;BME280;36494;50.730;-1.932;2023-05-19T07:06:12;102152.60;;;12.88;100.00
49645;BME280;36494;50.730;-1.932;2023-05-19T07:08:37;102154.53;;;12.94;100.00
49645;BME280;36494;50.730;-1.932;2023-05-19T07:11:02;102151.84;;;12.98;100.00
49645;BME280;36494;50.730;-1.932;2023-05-19T07:13:27;102148.87;;;13.04;100.00
49645;BME280;36494;50.730;-1.932;2023-05-19T07:15:52;102155.01;;;13.08;100.00
49645;BME280;36494;50.730;-1.932;2023-05-19T07:18:18;102158.11;;;13.11;100.00
49645;BME280;36494;50.730;-1.932;2023-05-19T07:20:44;102158.46;;;13.15;100.00
49645;BME280;36494;50.730;-1.932;2023-05-19T07:23:09;102155.13;;;13.20;100.00
49645;BME280;36494;50.730;-1.932;2023-05-19T07:25:35;102158.54;;;13.20;100.00
49645;BME280;36494;50.730;-1.932;2023-05-19T07:28:00;102157.18;;;13.24;100.00
49645;BME280;36494;50.730;-1.932;2023-05-19T07:30:27;102157.94;;;13.29;100.00
49645;BME280;36494;50.730;-1.932;2023-05-19T07:32:50;102159.00;;;13.31;100.00
49645;BME280;36494;50.730;-1.932;2023-05-19T07:35:16;102159.28;;;13.37;100.00
49645;BME280;36494;50.730;-1.932;2023-05-19T07:37:41;102155.93;;;13.43;100.00
49645;BME280;36494;50.730;-1.932;2023-05-19T07:40:07;102156.33;;;13.48;100.00
49645;BME280;36494;50.730;-1.932;2023-05-19T07:42:32;102152.20;;;13.52;100.00
49645;BME280;36494;50.730;-1.932;2023-05-19T07:44:57;102153.59;;;13.59;100.00
49645;BME280;36494;50.730;-1.932;2023-05-19T07:47:23;102154.88;;;13.66;100.00
49645;BME280;36494;50.730;-1.932;2023-05-19T07:49:48;102153.73;;;13.72;100.00
49645;BME280;36494;50.730;-1.932;2023-05-19T07:52:14;102155.14;;;13.77;100.00
49645;BME280;36494;50.730;-1.932;2023-05-19T07:54:39;102155.68;;;13.81;100.00
49645;BME280;36494;50.730;-1.932;2023-05-19T07:57:05;102152.22;;;13.86;100.00
49645;BME280;36494;50.730;-1.932;2023-05-19T07:59:30;102152.34;;;13.89;100.00
49645;BME280;36494;50.730;-1.932;2023-05-19T08:01:56;102153.49;;;13.98;100.00
49645;BME280;36494;50.730;-1.932;2023-05-19T08:04:22;102154.47;;;14.09;100.00
49645;BME280;36494;50.730;-1.932;2023-05-19T08:06:47;102157.74;;;14.19;100.00
49645;BME280;36494;50.730;-1.932;2023-05-19T08:09:13;102160.08;;;14.27;100.00
49645;BME280;36494;50.730;-1.932;2023-05-19T08:11:38;102159.30;;;14.36;100.00
49645;BME280;36494;50.730;-1.932;2023-05-19T08:14:04;102160.99;;;14.49;100.00
49645;BME280;36494;50.730;-1.932;2023-05-19T08:16:30;102159.95;;;14.61;100.00
49645;BME280;36494;50.730;-1.932;2023-05-19T08:18:54;102158.69;;;14.72;100.00
49645;BME280;36494;50.730;-1.932;2023-05-19T08:21:19;102160.02;;;14.83;100.00
49645;BME280;36494;50.730;-1.932;2023-05-19T08:23:44;102158.09;;;14.93;100.00
49645;BME280;36494;50.730;-1.932;2023-05-19T08:26:10;102152.39;;;15.04;100.00
49645;BME280;36494;50.730;-1.932;2023-05-19T08:28:35;102150.81;;;15.13;100.00
49645;BME280;36494;50.730;-1.932;2023-05-19T08:31:01;102155.42;;;15.29;100.00
49645;BME280;36494;50.730;-1.932;2023-05-19T08:33:26;102157.44;;;15.41;100.00
49645;BME280;36494;50.730;-1.932;2023-05-19T08:35:52;102155.16;;;15.47;100.00
49645;BME280;36494;50.730;-1.932;2023-05-19T08:38:17;102151.11;;;15.55;100.00
49645;BME280;36494;50.730;-1.932;2023-05-19T08:40:45;102150.36;;;15.65;100.00
49645;BME280;36494;50.730;-1.932;2023-05-19T08:43:09;102150.47;;;15.72;100.00
49645;BME280;36494;50.730;-1.932;2023-05-19T08:45:34;102149.81;;;15.82;100.00
49645;BME280;36494;50.730;-1.932;2023-05-19T08:48:00;102151.91;;;15.89;100.00
49645;BME280;36494;50.730;-1.932;2023-05-19T08:50:29;102145.83;;;15.95;100.00
49645;BME280;36494;50.730;-1.932;2023-05-19T08:52:54;102150.26;;;16.06;100.00
49645;BME280;36494;50.730;-1.932;2023-05-19T08:55:24;102147.99;;;16.14;100.00
49645;BME280;36494;50.730;-1.932;2023-05-19T08:57:42;102144.20;;;16.22;100.00
49645;BME280;36494;50.730;-1.932;2023-05-19T09:00:09;102151.15;;;16.31;100.00
49645;BME280;36494;50.730;-1.932;2023-05-19T09:02:34;102156.13;;;16.48;100.00
49645;BME280;36494;50.730;-1.932;2023-05-19T09:04:59;102152.90;;;16.56;100.00
49645;BME280;36494;50.730;-1.932;2023-05-19T09:07:24;102150.01;;;16.65;100.00
49645;BME280;36494;50.730;-1.932;2023-05-19T09:09:50;102149.71;;;16.76;100.00
49645;BME280;36494;50.730;-1.932;2023-05-19T09:12:14;102150.88;;;16.87;100.00
49645;BME280;36494;50.730;-1.932;2023-05-19T09:14:40;102148.43;;;16.96;100.00
49645;BME280;36494;50.730;-1.932;2023-05-19T09:17:05;102151.70;;;17.06;100.00
49645;BME280;36494;50.730;-1.932;2023-05-19T09:19:31;102146.75;;;17.19;100.00
49645;BME280;36494;50.730;-1.932;2023-05-19T09:21:57;102142.51;;;17.28;100.00
49645;BME280;36494;50.730;-1.932;2023-05-19T09:24:24;102145.42;;;17.34;100.00
49645;BME280;36494;50.730;-1.932;2023-05-19T09:26:47;102144.25;;;17.47;100.00
49645;BME280;36494;50.730;-1.932;2023-05-19T09:29:15;102142.56;;;17.47;100.00
49645;BME280;36494;50.730;-1.932;2023-05-19T09:31:45;102145.68;;;17.62;100.00
49645;BME280;36494;50.730;-1.932;2023-05-19T09:34:11;102145.20;;;17.69;100.00
49645;BME280;36494;50.730;-1.932;2023-05-19T09:36:29;102142.35;;;17.78;100.00
49645;BME280;36494;50.730;-1.932;2023-05-19T09:38:55;102143.59;;;17.83;100.00
49645;BME280;36494;50.730;-1.932;2023-05-19T09:41:21;102139.81;;;17.90;100.00
49645;BME280;36494;50.730;-1.932;2023-05-19T09:43:53;102136.01;;;17.94;100.00
49645;BME280;36494;50.730;-1.932;2023-05-19T09:46:12;102132.72;;;17.93;100.00
49645;BME280;36494;50.730;-1.932;2023-05-19T09:48:37;102132.17;;;18.02;100.00
49645;BME280;36494;50.730;-1.932;2023-05-19T09:51:04;102128.68;;;18.07;100.00
49645;BME280;36494;50.730;-1.932;2023-05-19T09:53:29;102127.52;;;18.17;100.00
49645;BME280;36494;50.730;-1.932;2023-05-19T09:55:55;102122.97;;;18.27;100.00
49645;BME280;36494;50.730;-1.932;2023-05-19T09:58:19;102119.25;;;18.36;100.00
49645;BME280;36494;50.730;-1.932;2023-05-19T10:00:45;102112.96;;;18.51;100.00
49645;BME280;36494;50.730;-1.932;2023-05-19T10:03:10;102109.20;;;18.65;100.00
49645;BME280;36494;50.730;-1.932;2023-05-19T10:05:35;102114.33;;;18.88;100.00
49645;BME280;36494;50.730;-1.932;2023-05-19T10:08:02;102118.37;;;19.25;100.00
49645;BME280;36494;50.730;-1.932;2023-05-19T10:10:27;102115.64;;;19.32;100.00
49645;BME280;36494;50.730;-1.932;2023-05-19T10:12:53;102115.43;;;19.53;100.00
49645;BME280;36494;50.730;-1.932;2023-05-19T10:15:18;102112.46;;;19.67;100.00
49645;BME280;36494;50.730;-1.932;2023-05-19T10:17:44;102110.30;;;19.82;100.00
49645;BME280;36494;50.730;-1.932;2023-05-19T10:20:10;102111.92;;;19.95;100.00
49645;BME280;36494;50.730;-1.932;2023-05-19T10:22:34;102112.45;;;19.75;100.00
49645;BME280;36494;50.730;-1.932;2023-05-19T10:24:59;102111.80;;;20.11;100.00
49645;BME280;36494;50.730;-1.932;2023-05-19T10:27:25;102110.40;;;20.47;100.00
49645;BME280;36494;50.730;-1.932;2023-05-19T10:29:51;102107.43;;;20.50;100.00
49645;BME280;36494;50.730;-1.932;2023-05-19T10:32:19;102106.74;;;20.30;100.00
49645;BME280;36494;50.730;-1.932;2023-05-19T10:34:56;102107.55;;;19.87;100.00
49645;BME280;36494;50.730;-1.932;2023-05-19T10:37:15;102105.91;;;19.92;100.00
49645;BME280;36494;50.730;-1.932;2023-05-19T10:39:33;102103.44;;;19.76;100.00
49645;BME280;36494;50.730;-1.932;2023-05-19T10:42:05;102104.45;;;20.36;100.00
49645;BME280;36494;50.730;-1.932;2023-05-19T10:44:34;102106.21;;;20.34;100.00
49645;BME280;36494;50.730;-1.932;2023-05-19T10:46:49;102103.39;;;20.45;100.00
49645;BME280;36494;50.730;-1.932;2023-05-19T10:49:19;102097.34;;;20.40;100.00
49645;BME280;36494;50.730;-1.932;2023-05-19T10:51:44;102104.40;;;19.68;100.00
49645;BME280;36494;50.730;-1.932;2023-05-19T10:54:07;102105.61;;;19.56;100.00
49645;BME280;36494;50.730;-1.932;2023-05-19T10:56:32;102102.69;;;19.33;100.00
49645;BME280;36494;50.730;-1.932;2023-05-19T10:58:57;102099.89;;;19.21;100.00
49645;BME280;36494;50.730;-1.932;2023-05-19T11:01:29;102092.01;;;18.50;100.00
49645;BME280;36494;50.730;-1.932;2023-05-19T11:03:50;102093.68;;;17.94;100.00
49645;BME280;36494;50.730;-1.932;2023-05-19T11:06:20;102088.71;;;17.94;100.00
49645;BME280;36494;50.730;-1.932;2023-05-19T11:08:39;102088.66;;;17.80;100.00
49645;BME280;36494;50.730;-1.932;2023-05-19T11:11:11;102083.12;;;18.04;100.00
49645;BME280;36494;50.730;-1.932;2023-05-19T11:13:30;102084.61;;;17.92;100.00
49645;BME280;36494;50.730;-1.932;2023-05-19T11:15:55;102085.14;;;17.80;100.00
49645;BME280;36494;50.730;-1.932;2023-05-19T11:18:21;102080.21;;;18.36;100.00
49645;BME280;36494;50.730;-1.932;2023-05-19T11:20:54;102081.27;;;18.40;100.00
49645;BME280;36494;50.730;-1.932;2023-05-19T11:23:14;102079.34;;;18.42;100.00
49645;BME280;36494;50.730;-1.932;2023-05-19T11:25:43;102072.27;;;18.64;100.00
49645;BME280;36494;50.730;-1.932;2023-05-19T11:28:02;102072.79;;;18.10;100.00
49645;BME280;36494;50.730;-1.932;2023-05-19T11:30:28;102073.20;;;18.13;100.00
49645;BME280;36494;50.730;-1.932;2023-05-19T11:32:53;102069.34;;;17.94;100.00
49645;BME280;36494;50.730;-1.932;2023-05-19T11:35:18;102069.59;;;18.22;100.00
49645;BME280;36494;50.730;-1.932;2023-05-19T11:37:44;102061.38;;;18.37;100.00
49645;BME280;36494;50.730;-1.932;2023-05-19T11:40:09;102060.18;;;18.37;100.00
49645;BME280;36494;50.730;-1.932;2023-05-19T11:42:35;102063.77;;;18.92;100.00
49645;BME280;36494;50.730;-1.932;2023-05-19T11:45:00;102061.21;;;19.00;100.00
49645;BME280;36494;50.730;-1.932;2023-05-19T11:47:26;102056.40;;;19.12;100.00
49645;BME280;36494;50.730;-1.932;2023-05-19T11:49:50;102056.43;;;19.19;100.00
49645;BME280;36494;50.730;-1.932;2023-05-19T11:52:16;102059.32;;;19.08;100.00
49645;BME280;36494;50.730;-1.932;2023-05-19T11:54:41;102054.70;;;19.38;100.00
49645;BME280;36494;50.730;-1.932;2023-05-19T11:57:08;102056.78;;;19.07;100.00
49645;BME280;36494;50.730;-1.932;2023-05-19T11:59:33;102057.61;;;19.28;100.00
49645;BME280;36494;50.730;-1.932;2023-05-19T12:02:00;102059.75;;;18.64;100.00
49645;BME280;36494;50.730;-1.932;2023-05-19T12:04:23;102055.64;;;18.42;100.00
49645;BME280;36494;50.730;-1.932;2023-05-19T12:06:49;102060.31;;;18.68;100.00
49645;BME280;36494;50.730;-1.932;2023-05-19T12:09:15;102061.15;;;18.77;100.00
49645;BME280;36494;50.730;-1.932;2023-05-19T12:11:40;102056.24;;;18.75;100.00
49645;BME280;36494;50.730;-1.932;2023-05-19T12:14:06;102059.97;;;19.24;100.00
49645;BME280;36494;50.730;-1.932;2023-05-19T12:16:32;102060.98;;;19.24;100.00
49645;BME280;36494;50.730;-1.932;2023-05-19T12:18:57;102059.90;;;18.37;100.00
49645;BME280;36494;50.730;-1.932;2023-05-19T12:21:23;102065.71;;;17.88;100.00